Queenston, Canada
Current Conditions -  °F | °C
As of 2:00 PM on Saturday 25 Oct 2014 (Local Time) from CYSN Reporting Station
Overcast Overcast  
Wind Chill: 63°   Ceiling: 2500
Heat Index: 63°   Visibility: 10mi
Dew Point: 54°   Wind: 21mph
Humidity: 72%   Direction: 230°SW
Pressure: 29.62"   Gusts: 29mph
Location:  43.17°N, 79.05°W
Report Text: CYSN 251800Z 23018G25KT 10SM OVC025 17/12 A2962 RMK SC8 SLP031 DENSITY ALT 900FT
Loading
Personal Weather Stations






























Interactive Weather Map
Tropical Storm Tracking
New forecast layout! Learn more

10-Day Weather Forecast

Advertisements
Track Severe Weather on mobile